sensor_id;sensor_type;location;lat;lon;timestamp;temperature;humidity
17236;DHT22;8734;59.272;17.780;2023-02-01T00:01:26;-4.80;99.90
17236;DHT22;8734;59.272;17.780;2023-02-01T00:03:54;-4.80;99.90
17236;DHT22;8734;59.272;17.780;2023-02-01T00:06:23;-4.80;99.90
17236;DHT22;8734;59.272;17.780;2023-02-01T00:08:52;-4.80;99.90
17236;DHT22;8734;59.272;17.780;2023-02-01T00:11:22;-4.80;99.90
17236;DHT22;8734;59.272;17.780;2023-02-01T00:13:51;-4.80;99.90
17236;DHT22;8734;59.272;17.780;2023-02-01T00:16:23;-4.80;99.90
17236;DHT22;8734;59.272;17.780;2023-02-01T00:18:56;-4.80;99.90
17236;DHT22;8734;59.272;17.780;2023-02-01T00:21:25;-4.70;99.90
17236;DHT22;8734;59.272;17.780;2023-02-01T00:23:53;-4.70;99.90
17236;DHT22;8734;59.272;17.780;2023-02-01T00:26:27;-4.70;99.90
17236;DHT22;8734;59.272;17.780;2023-02-01T00:28:58;-4.60;99.90
17236;DHT22;8734;59.272;17.780;2023-02-01T00:31:27;-4.60;99.90
17236;DHT22;8734;59.272;17.780;2023-02-01T00:33:56;-4.50;99.90
17236;DHT22;8734;59.272;17.780;2023-02-01T00:36:24;-4.50;99.90
17236;DHT22;8734;59.272;17.780;2023-02-01T00:38:53;-4.50;99.90
17236;DHT22;8734;59.272;17.780;2023-02-01T00:41:21;-4.40;99.90
17236;DHT22;8734;59.272;17.780;2023-02-01T00:43:50;-4.40;99.90
17236;DHT22;8734;59.272;17.780;2023-02-01T00:46:19;-4.40;99.90
17236;DHT22;8734;59.272;17.780;2023-02-01T00:48:50;-4.40;99.90
17236;DHT22;8734;59.272;17.780;2023-02-01T00:51:21;-4.30;99.90
17236;DHT22;8734;59.272;17.780;2023-02-01T00:53:50;-4.30;99.90
17236;DHT22;8734;59.272;17.780;2023-02-01T00:56:19;-4.20;99.90
17236;DHT22;8734;59.272;17.780;2023-02-01T00:58:48;-4.20;99.90
17236;DHT22;8734;59.272;17.780;2023-02-01T01:01:18;-4.10;99.90
17236;DHT22;8734;59.272;17.780;2023-02-01T01:03:49;-4.10;99.90
17236;DHT22;8734;59.272;17.780;2023-02-01T01:06:21;-4.00;99.90
17236;DHT22;8734;59.272;17.780;2023-02-01T01:08:51;-4.00;99.90
17236;DHT22;8734;59.272;17.780;2023-02-01T01:11:22;-4.00;99.90
17236;DHT22;8734;59.272;17.780;2023-02-01T01:13:52;-4.00;99.90
17236;DHT22;8734;59.272;17.780;2023-02-01T01:16:21;-4.00;99.90
17236;DHT22;8734;59.272;17.780;2023-02-01T01:18:52;-3.90;99.90
17236;DHT22;8734;59.272;17.780;2023-02-01T01:21:21;-3.90;99.90
17236;DHT22;8734;59.272;17.780;2023-02-01T01:23:50;-3.90;99.90
17236;DHT22;8734;59.272;17.780;2023-02-01T01:26:20;-3.80;99.90
17236;DHT22;8734;59.272;17.780;2023-02-01T01:28:49;-3.80;99.90
17236;DHT22;8734;59.272;17.780;2023-02-01T01:31:19;-3.70;99.90
17236;DHT22;8734;59.272;17.780;2023-02-01T01:33:48;-3.60;99.90
17236;DHT22;8734;59.272;17.780;2023-02-01T01:36:19;-3.50;99.90
17236;DHT22;8734;59.272;17.780;2023-02-01T01:38:48;-3.50;99.90
17236;DHT22;8734;59.272;17.780;2023-02-01T01:41:19;-3.50;99.90
17236;DHT22;8734;59.272;17.780;2023-02-01T01:43:54;-3.50;99.90
17236;DHT22;8734;59.272;17.780;2023-02-01T01:46:24;-3.50;99.90
17236;DHT22;8734;59.272;17.780;2023-02-01T01:48:57;-3.50;99.90
17236;DHT22;8734;59.272;17.780;2023-02-01T01:51:28;-3.50;99.90
17236;DHT22;8734;59.272;17.780;2023-02-01T01:54:02;-3.50;99.90
17236;DHT22;8734;59.272;17.780;2023-02-01T01:56:34;-3.40;99.90
17236;DHT22;8734;59.272;17.780;2023-02-01T01:59:04;-3.20;99.90
17236;DHT22;8734;59.272;17.780;2023-02-01T02:01:33;-3.10;99.90
17236;DHT22;8734;59.272;17.780;2023-02-01T02:04:01;-3.20;99.90
17236;DHT22;8734;59.272;17.780;2023-02-01T02:06:39;-3.20;99.90
17236;DHT22;8734;59.272;17.780;2023-02-01T02:09:08;-3.20;99.90
17236;DHT22;8734;59.272;17.780;2023-02-01T02:11:37;-3.20;99.90
17236;DHT22;8734;59.272;17.780;2023-02-01T02:14:07;-3.20;99.90
17236;DHT22;8734;59.272;17.780;2023-02-01T02:17:04;-3.10;99.90
17236;DHT22;8734;59.272;17.780;2023-02-01T02:23:05;-3.10;99.90
17236;DHT22;8734;59.272;17.780;2023-02-01T02:26:00;-3.00;99.90
17236;DHT22;8734;59.272;17.780;2023-02-01T02:29:09;-3.00;99.90
17236;DHT22;8734;59.272;17.780;2023-02-01T02:31:56;-2.90;99.90
17236;DHT22;8734;59.272;17.780;2023-02-01T02:34:33;-2.90;99.90
17236;DHT22;8734;59.272;17.780;2023-02-01T02:37:11;-2.90;99.90
17236;DHT22;8734;59.272;17.780;2023-02-01T02:39:46;-2.90;99.90
17236;DHT22;8734;59.272;17.780;2023-02-01T02:42:24;-2.80;99.90
17236;DHT22;8734;59.272;17.780;2023-02-01T02:45:18;-2.80;99.90
17236;DHT22;8734;59.272;17.780;2023-02-01T02:48:11;-2.80;99.90
17236;DHT22;8734;59.272;17.780;2023-02-01T02:50:46;-2.80;99.90
17236;DHT22;8734;59.272;17.780;2023-02-01T02:53:35;-2.70;99.90
17236;DHT22;8734;59.272;17.780;2023-02-01T02:56:24;-2.70;99.90
17236;DHT22;8734;59.272;17.780;2023-02-01T02:59:13;-2.70;99.90
17236;DHT22;8734;59.272;17.780;2023-02-01T03:02:00;-2.70;99.90
17236;DHT22;8734;59.272;17.780;2023-02-01T03:04:51;-2.70;99.90
17236;DHT22;8734;59.272;17.780;2023-02-01T03:07:51;-2.70;99.90
17236;DHT22;8734;59.272;17.780;2023-02-01T03:10:28;-2.60;99.90
17236;DHT22;8734;59.272;17.780;2023-02-01T03:13:03;-2.60;99.90
17236;DHT22;8734;59.272;17.780;2023-02-01T03:15:36;-2.60;99.90
17236;DHT22;8734;59.272;17.780;2023-02-01T03:18:11;-2.50;99.90
17236;DHT22;8734;59.272;17.780;2023-02-01T03:20:43;-2.50;99.90
17236;DHT22;8734;59.272;17.780;2023-02-01T03:23:16;-2.60;99.90
17236;DHT22;8734;59.272;17.780;2023-02-01T03:25:48;-2.60;99.90
17236;DHT22;8734;59.272;17.780;2023-02-01T03:28:19;-2.60;99.90
17236;DHT22;8734;59.272;17.780;2023-02-01T03:30:50;-2.50;99.90
17236;DHT22;8734;59.272;17.780;2023-02-01T03:33:22;-2.40;99.90
17236;DHT22;8734;59.272;17.780;2023-02-01T03:36:09;-2.40;99.90
17236;DHT22;8734;59.272;17.780;2023-02-01T03:38:48;-2.40;99.90
17236;DHT22;8734;59.272;17.780;2023-02-01T03:41:23;-2.30;99.90
17236;DHT22;8734;59.272;17.780;2023-02-01T03:43:55;-2.30;99.90
17236;DHT22;8734;59.272;17.780;2023-02-01T03:46:29;-2.30;99.90
17236;DHT22;8734;59.272;17.780;2023-02-01T03:49:03;-2.30;99.90
17236;DHT22;8734;59.272;17.780;2023-02-01T03:51:33;-2.30;99.90
17236;DHT22;8734;59.272;17.780;2023-02-01T03:54:06;-2.30;99.90
17236;DHT22;8734;59.272;17.780;2023-02-01T03:56:37;-2.20;99.90
17236;DHT22;8734;59.272;17.780;2023-02-01T03:59:08;-2.20;99.90
17236;DHT22;8734;59.272;17.780;2023-02-01T04:01:36;-2.20;99.90
17236;DHT22;8734;59.272;17.780;2023-02-01T04:04:05;-2.30;99.90
17236;DHT22;8734;59.272;17.780;2023-02-01T04:06:33;-2.20;99.90
17236;DHT22;8734;59.272;17.780;2023-02-01T04:09:02;-2.20;99.90
17236;DHT22;8734;59.272;17.780;2023-02-01T04:11:32;-2.20;99.90
17236;DHT22;8734;59.272;17.780;2023-02-01T04:14:00;-2.20;99.90
17236;DHT22;8734;59.272;17.780;2023-02-01T04:16:31;-2.10;99.90
17236;DHT22;8734;59.272;17.780;2023-02-01T04:19:00;-2.00;99.90
17236;DHT22;8734;59.272;17.780;2023-02-01T04:21:29;-1.90;99.90
17236;DHT22;8734;59.272;17.780;2023-02-01T04:23:58;-2.00;99.90
17236;DHT22;8734;59.272;17.780;2023-02-01T04:26:26;-1.90;99.90
17236;DHT22;8734;59.272;17.780;2023-02-01T04:28:55;-1.90;99.90
17236;DHT22;8734;59.272;17.780;2023-02-01T04:31:24;-1.80;99.90
17236;DHT22;8734;59.272;17.780;2023-02-01T04:33:55;-1.70;99.90
17236;DHT22;8734;59.272;17.780;2023-02-01T04:36:25;-1.70;99.90
17236;DHT22;8734;59.272;17.780;2023-02-01T04:38:53;-1.60;99.90
17236;DHT22;8734;59.272;17.780;2023-02-01T04:41:21;-1.60;99.90
17236;DHT22;8734;59.272;17.780;2023-02-01T04:43:50;-1.70;99.90
17236;DHT22;8734;59.272;17.780;2023-02-01T04:46:20;-1.70;99.90
17236;DHT22;8734;59.272;17.780;2023-02-01T04:48:49;-1.70;99.90
17236;DHT22;8734;59.272;17.780;2023-02-01T04:51:17;-1.70;99.90
17236;DHT22;8734;59.272;17.780;2023-02-01T04:53:45;-1.70;99.90
17236;DHT22;8734;59.272;17.780;2023-02-01T04:56:14;-1.60;99.90
17236;DHT22;8734;59.272;17.780;2023-02-01T04:58:42;-1.60;99.90
17236;DHT22;8734;59.272;17.780;2023-02-01T05:01:11;-1.60;99.90
17236;DHT22;8734;59.272;17.780;2023-02-01T05:03:40;-1.60;99.90
17236;DHT22;8734;59.272;17.780;2023-02-01T05:06:08;-1.60;99.90
17236;DHT22;8734;59.272;17.780;2023-02-01T05:08:37;-1.60;99.90
17236;DHT22;8734;59.272;17.780;2023-02-01T05:11:05;-1.60;99.90
17236;DHT22;8734;59.272;17.780;2023-02-01T05:13:34;-1.60;99.90
17236;DHT22;8734;59.272;17.780;2023-02-01T05:16:16;-1.60;99.90
17236;DHT22;8734;59.272;17.780;2023-02-01T05:18:46;-1.50;99.90
17236;DHT22;8734;59.272;17.780;2023-02-01T05:21:15;-1.50;99.90
17236;DHT22;8734;59.272;17.780;2023-02-01T05:23:43;-1.50;99.90
17236;DHT22;8734;59.272;17.780;2023-02-01T05:26:29;-1.50;99.90
17236;DHT22;8734;59.272;17.780;2023-02-01T05:28:57;-1.40;99.90
17236;DHT22;8734;59.272;17.780;2023-02-01T05:31:26;-1.40;99.90
17236;DHT22;8734;59.272;17.780;2023-02-01T05:33:56;-1.40;99.90
17236;DHT22;8734;59.272;17.780;2023-02-01T05:36:24;-1.40;99.90
17236;DHT22;8734;59.272;17.780;2023-02-01T05:38:53;-1.40;99.90
17236;DHT22;8734;59.272;17.780;2023-02-01T05:41:21;-1.40;99.90
17236;DHT22;8734;59.272;17.780;2023-02-01T05:43:50;-1.40;99.90
17236;DHT22;8734;59.272;17.780;2023-02-01T05:46:18;-1.30;99.90
17236;DHT22;8734;59.272;17.780;2023-02-01T05:48:47;-1.30;99.90
17236;DHT22;8734;59.272;17.780;2023-02-01T05:51:16;-1.30;99.90
17236;DHT22;8734;59.272;17.780;2023-02-01T05:53:44;-1.30;99.90
17236;DHT22;8734;59.272;17.780;2023-02-01T05:56:13;-1.30;99.90
17236;DHT22;8734;59.272;17.780;2023-02-01T05:58:41;-1.20;99.90
17236;DHT22;8734;59.272;17.780;2023-02-01T06:01:10;-1.20;99.90
17236;DHT22;8734;59.272;17.780;2023-02-01T06:03:38;-1.20;99.90
17236;DHT22;8734;59.272;17.780;2023-02-01T06:06:07;-1.30;99.90
17236;DHT22;8734;59.272;17.780;2023-02-01T06:08:36;-1.20;99.90
17236;DHT22;8734;59.272;17.780;2023-02-01T06:11:08;-1.20;99.90
17236;DHT22;8734;59.272;17.780;2023-02-01T06:13:39;-1.20;99.90
17236;DHT22;8734;59.272;17.780;2023-02-01T06:16:07;-1.20;99.90
17236;DHT22;8734;59.272;17.780;2023-02-01T06:18:36;-1.10;99.90
17236;DHT22;8734;59.272;17.780;2023-02-01T06:21:04;-1.00;99.90
17236;DHT22;8734;59.272;17.780;2023-02-01T06:23:33;-1.00;99.90
17236;DHT22;8734;59.272;17.780;2023-02-01T06:26:05;-1.10;99.90
17236;DHT22;8734;59.272;17.780;2023-02-01T06:28:34;-1.10;99.90
17236;DHT22;8734;59.272;17.780;2023-02-01T06:31:04;-1.10;99.90
17236;DHT22;8734;59.272;17.780;2023-02-01T06:33:33;-1.20;99.90
17236;DHT22;8734;59.272;17.780;2023-02-01T06:36:03;-1.10;99.90
17236;DHT22;8734;59.272;17.780;2023-02-01T06:38:32;-1.10;99.90
17236;DHT22;8734;59.272;17.780;2023-02-01T06:41:03;-1.20;99.90
17236;DHT22;8734;59.272;17.780;2023-02-01T06:43:32;-1.20;99.90
17236;DHT22;8734;59.272;17.780;2023-02-01T06:46:02;-1.20;99.90
17236;DHT22;8734;59.272;17.780;2023-02-01T06:48:30;-1.20;99.90
17236;DHT22;8734;59.272;17.780;2023-02-01T06:50:59;-1.20;99.90
17236;DHT22;8734;59.272;17.780;2023-02-01T06:53:28;-1.10;99.90
17236;DHT22;8734;59.272;17.780;2023-02-01T06:55:58;-1.10;99.90
17236;DHT22;8734;59.272;17.780;2023-02-01T06:58:30;-1.10;99.90
17236;DHT22;8734;59.272;17.780;2023-02-01T07:01:04;-1.10;99.90
17236;DHT22;8734;59.272;17.780;2023-02-01T07:03:33;-1.00;99.90
17236;DHT22;8734;59.272;17.780;2023-02-01T07:06:01;-1.00;99.90
17236;DHT22;8734;59.272;17.780;2023-02-01T07:08:31;-1.00;99.90
17236;DHT22;8734;59.272;17.780;2023-02-01T07:11:02;-1.00;99.90
17236;DHT22;8734;59.272;17.780;2023-02-01T07:13:32;-1.00;99.90
17236;DHT22;8734;59.272;17.780;2023-02-01T07:16:01;-0.90;99.90
17236;DHT22;8734;59.272;17.780;2023-02-01T07:18:30;-0.90;99.90
17236;DHT22;8734;59.272;17.780;2023-02-01T07:20:59;-0.90;99.90
17236;DHT22;8734;59.272;17.780;2023-02-01T07:23:28;-1.00;99.90
17236;DHT22;8734;59.272;17.780;2023-02-01T07:25:57;-0.90;99.90
17236;DHT22;8734;59.272;17.780;2023-02-01T07:28:27;-0.90;99.90
17236;DHT22;8734;59.272;17.780;2023-02-01T07:31:03;-0.90;99.90
17236;DHT22;8734;59.272;17.780;2023-02-01T07:33:32;-0.90;99.90
17236;DHT22;8734;59.272;17.780;2023-02-01T07:36:02;-0.90;99.90
17236;DHT22;8734;59.272;17.780;2023-02-01T07:38:31;-0.90;99.90
17236;DHT22;8734;59.272;17.780;2023-02-01T07:41:00;-0.90;99.90
17236;DHT22;8734;59.272;17.780;2023-02-01T07:43:29;-0.90;99.90
17236;DHT22;8734;59.272;17.780;2023-02-01T07:45:57;-0.90;99.90
17236;DHT22;8734;59.272;17.780;2023-02-01T07:48:27;-0.80;99.90
17236;DHT22;8734;59.272;17.780;2023-02-01T07:50:59;-0.70;99.90
17236;DHT22;8734;59.272;17.780;2023-02-01T07:53:29;-0.70;99.90
17236;DHT22;8734;59.272;17.780;2023-02-01T07:55:58;-0.70;99.90
17236;DHT22;8734;59.272;17.780;2023-02-01T07:58:26;-0.70;99.90
17236;DHT22;8734;59.272;17.780;2023-02-01T08:00:55;-0.70;99.90
17236;DHT22;8734;59.272;17.780;2023-02-01T08:03:43;-0.70;99.90
17236;DHT22;8734;59.272;17.780;2023-02-01T08:06:11;-0.60;99.90
17236;DHT22;8734;59.272;17.780;2023-02-01T08:08:40;-0.60;99.90
17236;DHT22;8734;59.272;17.780;2023-02-01T08:11:09;-0.60;99.90
17236;DHT22;8734;59.272;17.780;2023-02-01T08:13:37;-0.60;99.90
17236;DHT22;8734;59.272;17.780;2023-02-01T08:16:07;-0.60;99.90
17236;DHT22;8734;59.272;17.780;2023-02-01T08:18:37;-0.60;99.90
17236;DHT22;8734;59.272;17.780;2023-02-01T08:21:09;-0.50;99.90
17236;DHT22;8734;59.272;17.780;2023-02-01T08:23:39;-0.50;99.90
17236;DHT22;8734;59.272;17.780;2023-02-01T08:26:09;-0.40;99.90
17236;DHT22;8734;59.272;17.780;2023-02-01T08:28:38;-0.40;99.90
17236;DHT22;8734;59.272;17.780;2023-02-01T08:31:08;-0.40;99.90
17236;DHT22;8734;59.272;17.780;2023-02-01T08:33:37;-0.30;99.90
17236;DHT22;8734;59.272;17.780;2023-02-01T08:36:09;-0.30;99.90
17236;DHT22;8734;59.272;17.780;2023-02-01T08:38:40;-0.30;99.90
17236;DHT22;8734;59.272;17.780;2023-02-01T08:41:09;-0.30;99.90
17236;DHT22;8734;59.272;17.780;2023-02-01T08:43:38;-0.30;99.90
17236;DHT22;8734;59.272;17.780;2023-02-01T08:46:08;-0.30;99.90
17236;DHT22;8734;59.272;17.780;2023-02-01T08:48:37;-0.20;99.90
17236;DHT22;8734;59.272;17.780;2023-02-01T08:51:08;-0.20;99.90
17236;DHT22;8734;59.272;17.780;2023-02-01T08:53:37;-0.20;99.90
17236;DHT22;8734;59.272;17.780;2023-02-01T08:56:08;-0.20;99.90
17236;DHT22;8734;59.272;17.780;2023-02-01T08:58:37;-0.20;99.90
17236;DHT22;8734;59.272;17.780;2023-02-01T09:01:07;-0.20;99.90
17236;DHT22;8734;59.272;17.780;2023-02-01T09:03:36;-0.10;99.90
17236;DHT22;8734;59.272;17.780;2023-02-01T09:06:08;0.00;99.90
17236;DHT22;8734;59.272;17.780;2023-02-01T09:08:37;0.10;99.90
17236;DHT22;8734;59.272;17.780;2023-02-01T09:11:08;0.10;99.90
17236;DHT22;8734;59.272;17.780;2023-02-01T09:13:38;0.20;99.90
17236;DHT22;8734;59.272;17.780;2023-02-01T09:16:07;0.20;99.90
17236;DHT22;8734;59.272;17.780;2023-02-01T09:18:35;0.30;99.90
17236;DHT22;8734;59.272;17.780;2023-02-01T09:21:23;0.30;99.90
17236;DHT22;8734;59.272;17.780;2023-02-01T09:23:51;0.40;99.90
17236;DHT22;8734;59.272;17.780;2023-02-01T09:26:20;0.40;99.90
17236;DHT22;8734;59.272;17.780;2023-02-01T09:28:57;0.40;99.90
17236;DHT22;8734;59.272;17.780;2023-02-01T09:31:26;0.40;99.90
17236;DHT22;8734;59.272;17.780;2023-02-01T09:33:54;0.50;99.90
17236;DHT22;8734;59.272;17.780;2023-02-01T09:36:24;0.50;99.90
17236;DHT22;8734;59.272;17.780;2023-02-01T09:38:57;0.40;99.90
17236;DHT22;8734;59.272;17.780;2023-02-01T09:41:42;0.40;99.90
17236;DHT22;8734;59.272;17.780;2023-02-01T09:44:29;0.40;99.90
17236;DHT22;8734;59.272;17.780;2023-02-01T09:47:12;0.40;99.90
17236;DHT22;8734;59.272;17.780;2023-02-01T09:49:48;0.50;99.90
17236;DHT22;8734;59.272;17.780;2023-02-01T09:52:25;0.50;99.90
17236;DHT22;8734;59.272;17.780;2023-02-01T09:54:59;0.50;99.90
17236;DHT22;8734;59.272;17.780;2023-02-01T09:57:40;0.60;99.90
17236;DHT22;8734;59.272;17.780;2023-02-01T10:00:16;0.70;99.90
17236;DHT22;8734;59.272;17.780;2023-02-01T10:02:45;0.70;99.90
17236;DHT22;8734;59.272;17.780;2023-02-01T10:05:18;0.90;99.90
17236;DHT22;8734;59.272;17.780;2023-02-01T10:07:59;0.90;99.90
17236;DHT22;8734;59.272;17.780;2023-02-01T10:10:34;1.00;99.90
17236;DHT22;8734;59.272;17.780;2023-02-01T10:13:15;1.10;99.90
17236;DHT22;8734;59.272;17.780;2023-02-01T10:15:55;1.10;99.90
17236;DHT22;8734;59.272;17.780;2023-02-01T10:18:45;1.30;99.90
17236;DHT22;8734;59.272;17.780;2023-02-01T10:21:27;1.40;99.90
17236;DHT22;8734;59.272;17.780;2023-02-01T10:24:20;1.50;99.90
17236;DHT22;8734;59.272;17.780;2023-02-01T10:26:57;1.50;99.90
17236;DHT22;8734;59.272;17.780;2023-02-01T10:29:34;1.60;99.90
17236;DHT22;8734;59.272;17.780;2023-02-01T10:32:12;1.60;99.90
17236;DHT22;8734;59.272;17.780;2023-02-01T10:34:42;1.50;99.90
17236;DHT22;8734;59.272;17.780;2023-02-01T10:37:19;1.60;99.90
17236;DHT22;8734;59.272;17.780;2023-02-01T10:39:51;1.60;99.90
17236;DHT22;8734;59.272;17.780;2023-02-01T10:42:24;1.80;99.90
17236;DHT22;8734;59.272;17.780;2023-02-01T10:44:54;1.90;99.90
17236;DHT22;8734;59.272;17.780;2023-02-01T10:47:24;1.90;99.90
17236;DHT22;8734;59.272;17.780;2023-02-01T10:49:58;2.00;99.90
17236;DHT22;8734;59.272;17.780;2023-02-01T10:52:36;2.00;99.90
17236;DHT22;8734;59.272;17.780;2023-02-01T10:55:27;1.90;99.90
17236;DHT22;8734;59.272;17.780;2023-02-01T10:57:57;1.70;99.90
17236;DHT22;8734;59.272;17.780;2023-02-01T11:00:26;1.70;99.90
17236;DHT22;8734;59.272;17.780;2023-02-01T11:02:54;1.60;99.90
17236;DHT22;8734;59.272;17.780;2023-02-01T11:05:24;1.50;99.90
17236;DHT22;8734;59.272;17.780;2023-02-01T11:07:54;1.40;99.90
17236;DHT22;8734;59.272;17.780;2023-02-01T11:10:38;1.30;99.90
17236;DHT22;8734;59.272;17.780;2023-02-01T11:13:13;1.20;99.90
17236;DHT22;8734;59.272;17.780;2023-02-01T11:15:44;1.20;99.90
17236;DHT22;8734;59.272;17.780;2023-02-01T11:18:18;1.20;99.90
17236;DHT22;8734;59.272;17.780;2023-02-01T11:20:47;1.30;99.90
17236;DHT22;8734;59.272;17.780;2023-02-01T11:23:20;1.20;99.90
17236;DHT22;8734;59.272;17.780;2023-02-01T11:25:53;1.10;99.90
17236;DHT22;8734;59.272;17.780;2023-02-01T11:28:23;1.00;99.90
17236;DHT22;8734;59.272;17.780;2023-02-01T11:30:54;0.90;99.90
17236;DHT22;8734;59.272;17.780;2023-02-01T11:33:26;0.90;99.90
17236;DHT22;8734;59.272;17.780;2023-02-01T11:35:57;1.00;99.90
17236;DHT22;8734;59.272;17.780;2023-02-01T11:38:28;0.90;99.90
17236;DHT22;8734;59.272;17.780;2023-02-01T11:41:11;0.90;99.90
17236;DHT22;8734;59.272;17.780;2023-02-01T11:43:51;0.90;99.90
17236;DHT22;8734;59.272;17.780;2023-02-01T11:46:23;0.90;99.90
17236;DHT22;8734;59.272;17.780;2023-02-01T11:48:54;0.90;99.90
17236;DHT22;8734;59.272;17.780;2023-02-01T11:51:35;0.80;99.90
17236;DHT22;8734;59.272;17.780;2023-02-01T11:54:33;0.80;99.90
17236;DHT22;8734;59.272;17.780;2023-02-01T11:57:17;0.80;99.90
17236;DHT22;8734;59.272;17.780;2023-02-01T11:59:59;0.80;99.90
17236;DHT22;8734;59.272;17.780;2023-02-01T12:02:53;0.80;99.90
17236;DHT22;8734;59.272;17.780;2023-02-01T12:05:35;0.80;99.90
17236;DHT22;8734;59.272;17.780;2023-02-01T12:08:21;0.80;99.90
17236;DHT22;8734;59.272;17.780;2023-02-01T12:11:04;0.80;99.90
17236;DHT22;8734;59.272;17.780;2023-02-01T12:13:47;0.90;99.90
17236;DHT22;8734;59.272;17.780;2023-02-01T12:16:27;0.90;99.90
17236;DHT22;8734;59.272;17.780;2023-02-01T12:19:21;0.90;99.90
17236;DHT22;8734;59.272;17.780;2023-02-01T12:22:12;0.80;99.90
17236;DHT22;8734;59.272;17.780;2023-02-01T12:25:03;0.90;99.90
17236;DHT22;8734;59.272;17.780;2023-02-01T12:27:48;0.90;99.90
17236;DHT22;8734;59.272;17.780;2023-02-01T12:30:53;0.90;99.90
17236;DHT22;8734;59.272;17.780;2023-02-01T12:33:35;1.00;99.90
17236;DHT22;8734;59.272;17.780;2023-02-01T12:36:16;1.10;99.90
17236;DHT22;8734;59.272;17.780;2023-02-01T12:38:54;1.20;99.90
17236;DHT22;8734;59.272;17.780;2023-02-01T12:41:50;1.30;99.90
17236;DHT22;8734;59.272;17.780;2023-02-01T12:44:27;1.30;99.90
17236;DHT22;8734;59.272;17.780;2023-02-01T12:47:00;1.50;99.90
17236;DHT22;8734;59.272;17.780;2023-02-01T12:49:41;1.60;99.90
17236;DHT22;8734;59.272;17.780;2023-02-01T12:52:15;1.60;99.90
17236;DHT22;8734;59.272;17.780;2023-02-01T12:54:48;1.50;99.90
17236;DHT22;8734;59.272;17.780;2023-02-01T12:57:23;1.70;99.90
17236;DHT22;8734;59.272;17.780;2023-02-01T12:59:59;1.80;99.90
17236;DHT22;8734;59.272;17.780;2023-02-01T13:02:37;1.90;99.90
17236;DHT22;8734;59.272;17.780;2023-02-01T13:05:15;1.80;99.90
17236;DHT22;8734;59.272;17.780;2023-02-01T13:07:49;1.80;99.90
17236;DHT22;8734;59.272;17.780;2023-02-01T13:10:27;1.90;99.90
17236;DHT22;8734;59.272;17.780;2023-02-01T13:13:02;1.60;99.90
17236;DHT22;8734;59.272;17.780;2023-02-01T13:15:36;1.40;99.90
17236;DHT22;8734;59.272;17.780;2023-02-01T13:18:14;1.30;99.90
17236;DHT22;8734;59.272;17.780;2023-02-01T13:20:50;1.30;99.90
17236;DHT22;8734;59.272;17.780;2023-02-01T13:23:26;1.20;99.90
17236;DHT22;8734;59.272;17.780;2023-02-01T13:25:55;1.10;99.90
17236;DHT22;8734;59.272;17.780;2023-02-01T13:28:27;1.00;99.90
17236;DHT22;8734;59.272;17.780;2023-02-01T13:31:25;0.90;99.90
17236;DHT22;8734;59.272;17.780;2023-02-01T13:37:04;1.00;99.90
17236;DHT22;8734;59.272;17.780;2023-02-01T13:39:45;1.00;99.90
17236;DHT22;8734;59.272;17.780;2023-02-01T13:42:21;0.90;99.90
17236;DHT22;8734;59.272;17.780;2023-02-01T13:44:52;0.90;99.90
17236;DHT22;8734;59.272;17.780;2023-02-01T13:47:25;1.00;99.90
17236;DHT22;8734;59.272;17.780;2023-02-01T13:49:57;1.00;99.90
17236;DHT22;8734;59.272;17.780;2023-02-01T13:52:29;1.00;99.90
17236;DHT22;8734;59.272;17.780;2023-02-01T13:55:15;1.00;99.90
17236;DHT22;8734;59.272;17.780;2023-02-01T13:57:44;1.00;99.90
17236;DHT22;8734;59.272;17.780;2023-02-01T14:00:27;1.00;99.90
17236;DHT22;8734;59.272;17.780;2023-02-01T14:03:13;1.00;99.90
17236;DHT22;8734;59.272;17.780;2023-02-01T14:06:33;1.00;99.90
17236;DHT22;8734;59.272;17.780;2023-02-01T14:09:15;1.00;99.90
17236;DHT22;8734;59.272;17.780;2023-02-01T14:11:49;0.90;99.90
17236;DHT22;8734;59.272;17.780;2023-02-01T14:14:41;0.90;99.90
17236;DHT22;8734;59.272;17.780;2023-02-01T14:17:33;0.90;99.90
17236;DHT22;8734;59.272;17.780;2023-02-01T14:23:23;0.80;99.90
17236;DHT22;8734;59.272;17.780;2023-02-01T14:26:21;0.70;99.90
17236;DHT22;8734;59.272;17.780;2023-02-01T14:29:00;0.70;99.90
17236;DHT22;8734;59.272;17.780;2023-02-01T14:34:26;0.70;99.90
17236;DHT22;8734;59.272;17.780;2023-02-01T14:36:58;0.60;99.90
17236;DHT22;8734;59.272;17.780;2023-02-01T14:39:52;0.60;99.90
17236;DHT22;8734;59.272;17.780;2023-02-01T14:42:25;0.60;99.90
17236;DHT22;8734;59.272;17.780;2023-02-01T14:44:56;0.50;99.90
17236;DHT22;8734;59.272;17.780;2023-02-01T14:47:44;0.50;99.90
17236;DHT22;8734;59.272;17.780;2023-02-01T14:50:26;0.50;99.90
17236;DHT22;8734;59.272;17.780;2023-02-01T14:53:06;0.40;99.90
17236;DHT22;8734;59.272;17.780;2023-02-01T14:55:41;0.40;99.90
17236;DHT22;8734;59.272;17.780;2023-02-01T14:58:16;0.40;99.90
17236;DHT22;8734;59.272;17.780;2023-02-01T15:00:51;0.40;99.90
17236;DHT22;8734;59.272;17.780;2023-02-01T15:03:41;0.40;99.90
17236;DHT22;8734;59.272;17.780;2023-02-01T15:06:30;0.40;99.90
17236;DHT22;8734;59.272;17.780;2023-02-01T15:09:02;0.40;99.90
17236;DHT22;8734;59.272;17.780;2023-02-01T15:11:54;0.40;99.90
17236;DHT22;8734;59.272;17.780;2023-02-01T15:14:23;0.30;99.90
17236;DHT22;8734;59.272;17.780;2023-02-01T15:16:52;0.30;99.90
17236;DHT22;8734;59.272;17.780;2023-02-01T15:19:22;0.30;99.90
17236;DHT22;8734;59.272;17.780;2023-02-01T15:21:52;0.30;99.90
17236;DHT22;8734;59.272;17.780;2023-02-01T15:24:22;0.20;99.90
17236;DHT22;8734;59.272;17.780;2023-02-01T15:26:53;0.20;99.90
17236;DHT22;8734;59.272;17.780;2023-02-01T15:29:23;0.20;99.90
17236;DHT22;8734;59.272;17.780;2023-02-01T15:31:54;0.20;99.90
17236;DHT22;8734;59.272;17.780;2023-02-01T15:34:23;0.20;99.90
17236;DHT22;8734;59.272;17.780;2023-02-01T15:36:51;0.20;99.90
17236;DHT22;8734;59.272;17.780;2023-02-01T15:39:29;0.20;99.90
17236;DHT22;8734;59.272;17.780;2023-02-01T15:42:08;0.20;99.90
17236;DHT22;8734;59.272;17.780;2023-02-01T15:44:40;0.20;99.90
17236;DHT22;8734;59.272;17.780;2023-02-01T15:47:15;0.20;99.90
17236;DHT22;8734;59.272;17.780;2023-02-01T15:49:46;0.10;99.90
17236;DHT22;8734;59.272;17.780;2023-02-01T15:52:24;0.10;99.90
17236;DHT22;8734;59.272;17.780;2023-02-01T15:54:56;0.10;99.90
17236;DHT22;8734;59.272;17.780;2023-02-01T15:57:29;0.00;99.90
17236;DHT22;8734;59.272;17.780;2023-02-01T16:00:00;0.00;99.90
17236;DHT22;8734;59.272;17.780;2023-02-01T16:02:34;0.00;99.90
17236;DHT22;8734;59.272;17.780;2023-02-01T16:05:21;0.00;99.90
17236;DHT22;8734;59.272;17.780;2023-02-01T16:07:59;0.00;99.90
17236;DHT22;8734;59.272;17.780;2023-02-01T16:10:31;0.00;99.90
17236;DHT22;8734;59.272;17.780;2023-02-01T16:13:01;0.00;99.90
17236;DHT22;8734;59.272;17.780;2023-02-01T16:15:29;-0.10;99.90
17236;DHT22;8734;59.272;17.780;2023-02-01T16:18:00;-0.10;99.90
17236;DHT22;8734;59.272;17.780;2023-02-01T16:20:28;-0.10;99.90
17236;DHT22;8734;59.272;17.780;2023-02-01T16:22:57;-0.10;99.90
17236;DHT22;8734;59.272;17.780;2023-02-01T16:25:26;-0.10;99.90
17236;DHT22;8734;59.272;17.780;2023-02-01T16:27:54;-0.10;99.90
17236;DHT22;8734;59.272;17.780;2023-02-01T16:30:24;-0.10;99.90
17236;DHT22;8734;59.272;17.780;2023-02-01T16:32:52;-0.10;99.90